AirNav   Air Wisconsin Up To $57,000 Bonus
 
 452 users online  

WN53 Frontier Airpark
Lake Stevens, Washington, USA

GOING TO LAKE STEVENS?


Instrument Procedures

There are no published instrument procedures at WN53.

Some nearby airports with instrument procedures:

KAWO - Arlington Municipal Airport (5 nm NW)
S43 - Harvey Field Airport (12 nm S)
KPAE - Snohomish County Airport (Paine Field) (15 nm SW)
KOKH - AJ Eisenberg Airport (26 nm W)
KBVS - Skagit Regional Airport (26 nm NW)
 
Loc | Ops | Rwys | IFR | FBO | Links
Com | Nav | Svcs | Stats | Notes
Area around WN53 (Frontier Airpark)
 
Road maps at: MapQuest Bing Google
 
Aerial photo
WARNING: Photo may not be current or correct
Aerial photo of WN53 (Frontier Airpark)
Do you have a better or more recent aerial photo of Frontier Airpark that you would like to share? If so, please send us your photo.

 
Sectional chart

 
Airport distance calculator
Flying to Frontier Airpark? Find the distance to fly.

From to WN53

Sunrise and sunset
Times for 01-Dec-2022
 Local
(UTC-8)
 Zulu
(UTC)
Morning civil twilight07:0315:03
Sunrise07:3915:39
Sunset16:1600:16
Evening civil twilight16:5200:52

Current date and time
Zulu (UTC)  01-Dec-2022 08:30:07
Local (UTC-8)  01-Dec-2022 00:30:07
 
METAR
KAWO 
5nm NW 
010756Z AUTO 00000KT 1/4SM FZFG BKN002 BKN025 M03/M04 A2957 RMK AO2 SLP020 T10281039 400441028 FZRANO
KPAE 
15nm SW 
010819Z AUTO 00000KT 2SM R16R/1600V4500FT BR FEW001 OVC015 00/M01 A2955 RMK AO2 T00001006
TAF
KPAE 
15nm SW 
010520Z 0106/0206 VRB03KT P6SM BKN012 OVC020 FM011000 35010KT P6SM SCT020 OVC030 FM011800 35010KT P6SM OVC035 FM020200 02006KT P6SM SCT050 BKN100
NOTAMs
Click for the latest NOTAMs
NOTAMs are issued by the DoD/FAA and will open in a separate window not controlled by AirNav.

 

 
 

Would you like to see your business listed on this page?

 If your business provides an interesting product or service to pilots, flight crews, aircraft, or users of the Frontier Airpark, you should consider listing it here.  To start the listing process, click on the button below
 
Add a business
 

Other Pages about Frontier Airpark

Update a link
 
Copyright © AirNav, LLC. All rights reserved. Privacy Policy  Contact